sensor_id;sensor_type;location;lat;lon;timestamp;temperature;humidity
7455;HTU21D;3769;51.208;4.454;2023-11-18T00:02:35;7.5;97.4
7455;HTU21D;3769;51.208;4.454;2023-11-18T00:07:35;7.7;97.4
7455;HTU21D;3769;51.208;4.454;2023-11-18T00:12:35;7.5;97.4
7455;HTU21D;3769;51.208;4.454;2023-11-18T00:17:35;7.9;97.4
7455;HTU21D;3769;51.208;4.454;2023-11-18T00:22:35;7.9;97.4
7455;HTU21D;3769;51.208;4.454;2023-11-18T00:27:35;7.8;97.4
7455;HTU21D;3769;51.208;4.454;2023-11-18T00:32:35;7.5;97.4
7455;HTU21D;3769;51.208;4.454;2023-11-18T00:37:35;7.6;97.4
7455;HTU21D;3769;51.208;4.454;2023-11-18T00:42:35;7.5;97.4
7455;HTU21D;3769;51.208;4.454;2023-11-18T00:47:35;7.6;97.4
7455;HTU21D;3769;51.208;4.454;2023-11-18T00:52:35;7.9;97.4
7455;HTU21D;3769;51.208;4.454;2023-11-18T00:57:35;7.6;97.4
7455;HTU21D;3769;51.208;4.454;2023-11-18T01:02:35;7.7;97.4
7455;HTU21D;3769;51.208;4.454;2023-11-18T01:07:35;7.7;97.4
7455;HTU21D;3769;51.208;4.454;2023-11-18T01:12:35;7.7;97.4
7455;HTU21D;3769;51.208;4.454;2023-11-18T01:17:35;8.2;97.5
7455;HTU21D;3769;51.208;4.454;2023-11-18T01:22:35;7.9;97.4
7455;HTU21D;3769;51.208;4.454;2023-11-18T01:27:35;8.1;97.5
7455;HTU21D;3769;51.208;4.454;2023-11-18T01:32:35;8.1;97.5
7455;HTU21D;3769;51.208;4.454;2023-11-18T01:37:35;8.2;97.5
7455;HTU21D;3769;51.208;4.454;2023-11-18T01:42:35;8.4;97.5
7455;HTU21D;3769;51.208;4.454;2023-11-18T01:47:35;8.4;97.5
7455;HTU21D;3769;51.208;4.454;2023-11-18T01:52:35;8.3;97.5
7455;HTU21D;3769;51.208;4.454;2023-11-18T01:57:35;8.2;97.5
7455;HTU21D;3769;51.208;4.454;2023-11-18T02:02:35;7.7;97.4
7455;HTU21D;3769;51.208;4.454;2023-11-18T02:07:35;7.6;97.4
7455;HTU21D;3769;51.208;4.454;2023-11-18T02:12:53;7.6;97.4
7455;HTU21D;3769;51.208;4.454;2023-11-18T02:17:37;7.4;97.4
7455;HTU21D;3769;51.208;4.454;2023-11-18T02:22:35;7.3;97.4
7455;HTU21D;3769;51.208;4.454;2023-11-18T02:27:35;7.4;97.4
7455;HTU21D;3769;51.208;4.454;2023-11-18T02:32:37;7.3;97.3
7455;HTU21D;3769;51.208;4.454;2023-11-18T02:37:36;7.3;97.4
7455;HTU21D;3769;51.208;4.454;2023-11-18T02:42:36;7.5;97.4
7455;HTU21D;3769;51.208;4.454;2023-11-18T02:47:35;7.4;97.4
7455;HTU21D;3769;51.208;4.454;2023-11-18T02:52:35;7.3;97.3
7455;HTU21D;3769;51.208;4.454;2023-11-18T02:57:35;7.2;97.3
7455;HTU21D;3769;51.208;4.454;2023-11-18T03:02:35;7.3;97.3
7455;HTU21D;3769;51.208;4.454;2023-11-18T03:07:35;7.1;97.3
7455;HTU21D;3769;51.208;4.454;2023-11-18T03:12:35;7.1;97.3
7455;HTU21D;3769;51.208;4.454;2023-11-18T03:17:35;7;97.3
7455;HTU21D;3769;51.208;4.454;2023-11-18T03:22:35;6.9;97.3
7455;HTU21D;3769;51.208;4.454;2023-11-18T03:27:35;7.1;97.3
7455;HTU21D;3769;51.208;4.454;2023-11-18T03:32:35;7;97.3
7455;HTU21D;3769;51.208;4.454;2023-11-18T03:37:35;7.1;97.3
7455;HTU21D;3769;51.208;4.454;2023-11-18T03:42:35;7;97.3
7455;HTU21D;3769;51.208;4.454;2023-11-18T03:47:35;7;97.3
7455;HTU21D;3769;51.208;4.454;2023-11-18T03:52:36;7;97.3
7455;HTU21D;3769;51.208;4.454;2023-11-18T03:57:35;7;97.3
7455;HTU21D;3769;51.208;4.454;2023-11-18T04:02:35;7.1;97.3
7455;HTU21D;3769;51.208;4.454;2023-11-18T04:07:35;7.2;97.3
7455;HTU21D;3769;51.208;4.454;2023-11-18T04:12:35;7.2;97.3
7455;HTU21D;3769;51.208;4.454;2023-11-18T04:17:35;7.1;97.3
7455;HTU21D;3769;51.208;4.454;2023-11-18T04:22:35;7.2;97.3
7455;HTU21D;3769;51.208;4.454;2023-11-18T04:27:35;7;97.3
7455;HTU21D;3769;51.208;4.454;2023-11-18T04:32:35;7.1;97.3
7455;HTU21D;3769;51.208;4.454;2023-11-18T04:37:35;7.2;97.3
7455;HTU21D;3769;51.208;4.454;2023-11-18T04:42:35;7.1;97.3
7455;HTU21D;3769;51.208;4.454;2023-11-18T04:47:35;7.1;97.3
7455;HTU21D;3769;51.208;4.454;2023-11-18T04:52:35;7.1;97.3
7455;HTU21D;3769;51.208;4.454;2023-11-18T04:57:35;7;97.3
7455;HTU21D;3769;51.208;4.454;2023-11-18T05:02:35;7.3;97.3
7455;HTU21D;3769;51.208;4.454;2023-11-18T05:07:35;7.2;97.3
7455;HTU21D;3769;51.208;4.454;2023-11-18T05:12:35;7;97.3
7455;HTU21D;3769;51.208;4.454;2023-11-18T05:17:35;7.2;97.3
7455;HTU21D;3769;51.208;4.454;2023-11-18T05:22:35;7.3;97.3
7455;HTU21D;3769;51.208;4.454;2023-11-18T05:27:35;7.2;97.3
7455;HTU21D;3769;51.208;4.454;2023-11-18T05:32:35;7.1;97.3
7455;HTU21D;3769;51.208;4.454;2023-11-18T05:37:35;7;97.3
7455;HTU21D;3769;51.208;4.454;2023-11-18T05:42:35;7.3;97.3
7455;HTU21D;3769;51.208;4.454;2023-11-18T05:47:35;7.2;97.3
7455;HTU21D;3769;51.208;4.454;2023-11-18T05:52:35;7.3;97.3
7455;HTU21D;3769;51.208;4.454;2023-11-18T05:57:35;7.3;97.3
7455;HTU21D;3769;51.208;4.454;2023-11-18T06:02:35;7.4;97.4
7455;HTU21D;3769;51.208;4.454;2023-11-18T06:07:35;7.4;97.4
7455;HTU21D;3769;51.208;4.454;2023-11-18T06:12:35;7.4;97.4
7455;HTU21D;3769;51.208;4.454;2023-11-18T06:17:35;7.3;97.3
7455;HTU21D;3769;51.208;4.454;2023-11-18T06:22:35;7.4;97.4
7455;HTU21D;3769;51.208;4.454;2023-11-18T06:27:35;7.2;97.3
7455;HTU21D;3769;51.208;4.454;2023-11-18T06:32:35;7.3;97.3
7455;HTU21D;3769;51.208;4.454;2023-11-18T06:37:35;7.3;97.4
7455;HTU21D;3769;51.208;4.454;2023-11-18T06:42:35;7.4;97.4
7455;HTU21D;3769;51.208;4.454;2023-11-18T06:47:35;7.4;97.4
7455;HTU21D;3769;51.208;4.454;2023-11-18T06:52:38;7.5;97.4
7455;HTU21D;3769;51.208;4.454;2023-11-18T06:57:35;7.5;97.4
7455;HTU21D;3769;51.208;4.454;2023-11-18T07:02:35;7.5;97.4
7455;HTU21D;3769;51.208;4.454;2023-11-18T07:07:35;7.4;97.4
7455;HTU21D;3769;51.208;4.454;2023-11-18T07:12:35;7.6;97.4
7455;HTU21D;3769;51.208;4.454;2023-11-18T07:17:35;7.6;97.4
7455;HTU21D;3769;51.208;4.454;2023-11-18T07:22:35;7.5;97.4
7455;HTU21D;3769;51.208;4.454;2023-11-18T07:27:35;7.6;97.4
7455;HTU21D;3769;51.208;4.454;2023-11-18T07:32:35;7.6;97.4
7455;HTU21D;3769;51.208;4.454;2023-11-18T07:37:35;7.6;97.4
7455;HTU21D;3769;51.208;4.454;2023-11-18T07:42:35;7.7;97.4
7455;HTU21D;3769;51.208;4.454;2023-11-18T07:47:35;7.7;97.4
7455;HTU21D;3769;51.208;4.454;2023-11-18T07:52:35;7.7;97.4
7455;HTU21D;3769;51.208;4.454;2023-11-18T07:57:36;7.7;97.4
7455;HTU21D;3769;51.208;4.454;2023-11-18T08:02:36;7.7;97.4
7455;HTU21D;3769;51.208;4.454;2023-11-18T08:07:35;7.9;97.4
7455;HTU21D;3769;51.208;4.454;2023-11-18T08:12:35;7.7;97.4
7455;HTU21D;3769;51.208;4.454;2023-11-18T08:17:35;7.8;97.4
7455;HTU21D;3769;51.208;4.454;2023-11-18T08:22:35;7.8;97.4
7455;HTU21D;3769;51.208;4.454;2023-11-18T08:27:35;7.8;97.4
7455;HTU21D;3769;51.208;4.454;2023-11-18T08:32:35;7.9;97.4
7455;HTU21D;3769;51.208;4.454;2023-11-18T08:37:36;7.9;97.4
7455;HTU21D;3769;51.208;4.454;2023-11-18T08:42:35;7.9;97.4
7455;HTU21D;3769;51.208;4.454;2023-11-18T08:47:35;8;97.5
7455;HTU21D;3769;51.208;4.454;2023-11-18T08:52:35;8.1;97.5
7455;HTU21D;3769;51.208;4.454;2023-11-18T08:57:35;8;97.5
7455;HTU21D;3769;51.208;4.454;2023-11-18T09:02:35;8;97.4
7455;HTU21D;3769;51.208;4.454;2023-11-18T09:07:35;8;97.5
7455;HTU21D;3769;51.208;4.454;2023-11-18T09:12:35;8.1;97.5
7455;HTU21D;3769;51.208;4.454;2023-11-18T09:17:35;8.2;97.5
7455;HTU21D;3769;51.208;4.454;2023-11-18T09:22:35;8.1;97.5
7455;HTU21D;3769;51.208;4.454;2023-11-18T09:27:35;8.3;97.5
7455;HTU21D;3769;51.208;4.454;2023-11-18T09:32:35;8.1;97.5
7455;HTU21D;3769;51.208;4.454;2023-11-18T09:37:35;8.2;97.5
7455;HTU21D;3769;51.208;4.454;2023-11-18T09:42:35;8.1;97.5
7455;HTU21D;3769;51.208;4.454;2023-11-18T09:47:36;8.2;97.5
7455;HTU21D;3769;51.208;4.454;2023-11-18T09:52:35;8.2;97.5
7455;HTU21D;3769;51.208;4.454;2023-11-18T09:57:39;8.3;97.5
7455;HTU21D;3769;51.208;4.454;2023-11-18T10:02:35;8.3;97.5
7455;HTU21D;3769;51.208;4.454;2023-11-18T10:07:35;8.3;97.5
7455;HTU21D;3769;51.208;4.454;2023-11-18T10:12:35;8.3;97.5
7455;HTU21D;3769;51.208;4.454;2023-11-18T10:17:35;8.3;97.5
7455;HTU21D;3769;51.208;4.454;2023-11-18T10:22:35;8.3;97.5
7455;HTU21D;3769;51.208;4.454;2023-11-18T10:27:35;8.3;97.5
7455;HTU21D;3769;51.208;4.454;2023-11-18T10:32:35;8.4;97.5
7455;HTU21D;3769;51.208;4.454;2023-11-18T10:37:35;8.3;97.5
7455;HTU21D;3769;51.208;4.454;2023-11-18T10:42:35;8.3;97.5
7455;HTU21D;3769;51.208;4.454;2023-11-18T10:47:35;8.3;97.5
7455;HTU21D;3769;51.208;4.454;2023-11-18T10:52:35;8.3;97.5
7455;HTU21D;3769;51.208;4.454;2023-11-18T10:57:35;8.3;97.5
7455;HTU21D;3769;51.208;4.454;2023-11-18T11:02:35;8.3;97.5
7455;HTU21D;3769;51.208;4.454;2023-11-18T11:07:35;8.3;97.5
7455;HTU21D;3769;51.208;4.454;2023-11-18T11:12:43;8.3;97.5
7455;HTU21D;3769;51.208;4.454;2023-11-18T11:17:35;8.3;97.5
7455;HTU21D;3769;51.208;4.454;2023-11-18T11:22:38;8.4;97.5
7455;HTU21D;3769;51.208;4.454;2023-11-18T11:27:41;8.3;97.5
7455;HTU21D;3769;51.208;4.454;2023-11-18T11:32:35;8.3;97.5
7455;HTU21D;3769;51.208;4.454;2023-11-18T11:37:35;8.3;97.5
7455;HTU21D;3769;51.208;4.454;2023-11-18T11:42:35;8.3;97.5
7455;HTU21D;3769;51.208;4.454;2023-11-18T11:47:35;8.4;97.5
7455;HTU21D;3769;51.208;4.454;2023-11-18T11:52:35;8.4;97.5
7455;HTU21D;3769;51.208;4.454;2023-11-18T11:57:35;8.4;97.5
7455;HTU21D;3769;51.208;4.454;2023-11-18T12:02:35;8.5;97.5
7455;HTU21D;3769;51.208;4.454;2023-11-18T12:07:35;8.4;97.5
7455;HTU21D;3769;51.208;4.454;2023-11-18T12:12:35;8.5;97.5
7455;HTU21D;3769;51.208;4.454;2023-11-18T12:18:08;8.6;97.5
7455;HTU21D;3769;51.208;4.454;2023-11-18T12:23:02;8.6;97.5
7455;HTU21D;3769;51.208;4.454;2023-11-18T12:27:43;8.5;97.5
7455;HTU21D;3769;51.208;4.454;2023-11-18T12:33:06;8.5;97.5
7455;HTU21D;3769;51.208;4.454;2023-11-18T12:37:59;8.5;97.5
7455;HTU21D;3769;51.208;4.454;2023-11-18T12:42:47;8.4;97.5
7455;HTU21D;3769;51.208;4.454;2023-11-18T12:47:35;8.5;97.5
7455;HTU21D;3769;51.208;4.454;2023-11-18T12:52:35;8.6;97.5
7455;HTU21D;3769;51.208;4.454;2023-11-18T12:57:35;8.5;97.5
7455;HTU21D;3769;51.208;4.454;2023-11-18T13:02:35;8.5;97.5
7455;HTU21D;3769;51.208;4.454;2023-11-18T13:07:35;8.6;97.5
7455;HTU21D;3769;51.208;4.454;2023-11-18T13:12:35;8.6;97.5
7455;HTU21D;3769;51.208;4.454;2023-11-18T13:17:35;8.6;97.5
7455;HTU21D;3769;51.208;4.454;2023-11-18T13:22:35;8.6;97.5
7455;HTU21D;3769;51.208;4.454;2023-11-18T13:27:35;8.7;97.6
7455;HTU21D;3769;51.208;4.454;2023-11-18T13:32:35;8.6;97.5
7455;HTU21D;3769;51.208;4.454;2023-11-18T13:37:35;8.7;97.6
7455;HTU21D;3769;51.208;4.454;2023-11-18T13:42:35;8.6;97.5
7455;HTU21D;3769;51.208;4.454;2023-11-18T13:47:35;8.7;97.6
7455;HTU21D;3769;51.208;4.454;2023-11-18T13:52:36;8.8;97.6
7455;HTU21D;3769;51.208;4.454;2023-11-18T13:57:35;8.7;97.6
7455;HTU21D;3769;51.208;4.454;2023-11-18T14:02:35;8.7;97.6
7455;HTU21D;3769;51.208;4.454;2023-11-18T14:07:37;8.9;97.6
7455;HTU21D;3769;51.208;4.454;2023-11-18T14:12:35;8.8;97.6
7455;HTU21D;3769;51.208;4.454;2023-11-18T14:17:35;8.8;97.6
7455;HTU21D;3769;51.208;4.454;2023-11-18T14:22:35;8.8;97.6
7455;HTU21D;3769;51.208;4.454;2023-11-18T14:27:35;8.8;97.6
7455;HTU21D;3769;51.208;4.454;2023-11-18T14:32:35;8.9;97.6
7455;HTU21D;3769;51.208;4.454;2023-11-18T14:37:38;8.9;97.6
7455;HTU21D;3769;51.208;4.454;2023-11-18T14:42:35;8.9;97.6
7455;HTU21D;3769;51.208;4.454;2023-11-18T14:47:35;8.9;97.6
7455;HTU21D;3769;51.208;4.454;2023-11-18T14:52:36;9;97.6
7455;HTU21D;3769;51.208;4.454;2023-11-18T14:57:35;9;97.6
7455;HTU21D;3769;51.208;4.454;2023-11-18T15:02:35;9;97.6
7455;HTU21D;3769;51.208;4.454;2023-11-18T15:07:35;9.1;97.6
7455;HTU21D;3769;51.208;4.454;2023-11-18T15:12:35;9;97.6
7455;HTU21D;3769;51.208;4.454;2023-11-18T15:17:35;9.1;97.6
7455;HTU21D;3769;51.208;4.454;2023-11-18T15:22:35;9.3;97.6
7455;HTU21D;3769;51.208;4.454;2023-11-18T15:27:35;9.3;97.6
7455;HTU21D;3769;51.208;4.454;2023-11-18T15:32:35;9.2;97.6
7455;HTU21D;3769;51.208;4.454;2023-11-18T15:37:36;9.2;97.6
7455;HTU21D;3769;51.208;4.454;2023-11-18T15:42:36;9.2;97.6
7455;HTU21D;3769;51.208;4.454;2023-11-18T15:47:35;9.3;97.6
7455;HTU21D;3769;51.208;4.454;2023-11-18T15:52:35;9.4;97.7
7455;HTU21D;3769;51.208;4.454;2023-11-18T15:57:36;9.4;97.7
7455;HTU21D;3769;51.208;4.454;2023-11-18T16:02:35;9.5;97.7
7455;HTU21D;3769;51.208;4.454;2023-11-18T16:07:35;9.5;97.7
7455;HTU21D;3769;51.208;4.454;2023-11-18T16:12:35;9.7;97.7
7455;HTU21D;3769;51.208;4.454;2023-11-18T16:17:35;9.6;97.7
7455;HTU21D;3769;51.208;4.454;2023-11-18T16:22:35;9.6;97.7
7455;HTU21D;3769;51.208;4.454;2023-11-18T16:27:35;9.8;97.7
7455;HTU21D;3769;51.208;4.454;2023-11-18T16:32:35;9.8;97.7
7455;HTU21D;3769;51.208;4.454;2023-11-18T16:37:35;9.8;97.7
7455;HTU21D;3769;51.208;4.454;2023-11-18T16:42:35;9.9;97.7
7455;HTU21D;3769;51.208;4.454;2023-11-18T16:47:35;9.8;97.7
7455;HTU21D;3769;51.208;4.454;2023-11-18T16:52:35;10;97.7
7455;HTU21D;3769;51.208;4.454;2023-11-18T16:57:35;10.1;97.8
7455;HTU21D;3769;51.208;4.454;2023-11-18T17:02:35;10.1;97.8
7455;HTU21D;3769;51.208;4.454;2023-11-18T17:07:35;10.1;97.8
7455;HTU21D;3769;51.208;4.454;2023-11-18T17:12:35;10.2;97.8
7455;HTU21D;3769;51.208;4.454;2023-11-18T17:17:35;10.2;97.8
7455;HTU21D;3769;51.208;4.454;2023-11-18T17:22:35;10.2;97.8
7455;HTU21D;3769;51.208;4.454;2023-11-18T17:27:35;10.5;97.8
7455;HTU21D;3769;51.208;4.454;2023-11-18T17:32:35;10.5;97.8
7455;HTU21D;3769;51.208;4.454;2023-11-18T17:37:35;10.4;97.8
7455;HTU21D;3769;51.208;4.454;2023-11-18T17:42:35;10.5;97.8
7455;HTU21D;3769;51.208;4.454;2023-11-18T17:47:35;10.4;97.8
7455;HTU21D;3769;51.208;4.454;2023-11-18T17:52:35;10.7;97.8
7455;HTU21D;3769;51.208;4.454;2023-11-18T17:57:35;10.5;97.8
7455;HTU21D;3769;51.208;4.454;2023-11-18T18:02:35;10.7;97.9
7455;HTU21D;3769;51.208;4.454;2023-11-18T18:07:35;10.7;97.9
7455;HTU21D;3769;51.208;4.454;2023-11-18T18:12:35;10.6;97.8
7455;HTU21D;3769;51.208;4.454;2023-11-18T18:17:35;10.8;97.9
7455;HTU21D;3769;51.208;4.454;2023-11-18T18:22:36;10.9;97.9
7455;HTU21D;3769;51.208;4.454;2023-11-18T18:27:35;10.8;97.9
7455;HTU21D;3769;51.208;4.454;2023-11-18T18:32:35;10.9;97.9
7455;HTU21D;3769;51.208;4.454;2023-11-18T18:37:35;11.1;97.9
7455;HTU21D;3769;51.208;4.454;2023-11-18T18:42:35;10.9;97.9
7455;HTU21D;3769;51.208;4.454;2023-11-18T18:47:35;11.2;97.9
7455;HTU21D;3769;51.208;4.454;2023-11-18T18:52:35;11;97.9
7455;HTU21D;3769;51.208;4.454;2023-11-18T18:57:35;11.1;97.9
7455;HTU21D;3769;51.208;4.454;2023-11-18T19:02:35;11.2;97.9
7455;HTU21D;3769;51.208;4.454;2023-11-18T19:07:35;11.4;98
7455;HTU21D;3769;51.208;4.454;2023-11-18T19:12:35;11.1;97.9
7455;HTU21D;3769;51.208;4.454;2023-11-18T19:17:35;11.3;98
7455;HTU21D;3769;51.208;4.454;2023-11-18T19:22:35;11.3;97.9
7455;HTU21D;3769;51.208;4.454;2023-11-18T19:27:35;11.4;98
7455;HTU21D;3769;51.208;4.454;2023-11-18T19:32:35;11.4;98
7455;HTU21D;3769;51.208;4.454;2023-11-18T19:37:35;11.5;98
7455;HTU21D;3769;51.208;4.454;2023-11-18T19:42:35;11.5;98
7455;HTU21D;3769;51.208;4.454;2023-11-18T19:47:35;11.5;98
7455;HTU21D;3769;51.208;4.454;2023-11-18T19:52:35;11.5;98
7455;HTU21D;3769;51.208;4.454;2023-11-18T19:57:35;11.4;98
7455;HTU21D;3769;51.208;4.454;2023-11-18T20:02:35;11.6;98
7455;HTU21D;3769;51.208;4.454;2023-11-18T20:07:35;11.6;98
7455;HTU21D;3769;51.208;4.454;2023-11-18T20:12:35;11.6;98
7455;HTU21D;3769;51.208;4.454;2023-11-18T20:17:35;11.6;98
7455;HTU21D;3769;51.208;4.454;2023-11-18T20:22:35;11.8;98
7455;HTU21D;3769;51.208;4.454;2023-11-18T20:27:35;11.7;98
7455;HTU21D;3769;51.208;4.454;2023-11-18T20:32:35;11.7;98
7455;HTU21D;3769;51.208;4.454;2023-11-18T20:37:35;11.7;98
7455;HTU21D;3769;51.208;4.454;2023-11-18T20:42:35;11.6;98
7455;HTU21D;3769;51.208;4.454;2023-11-18T20:47:35;11.8;98
7455;HTU21D;3769;51.208;4.454;2023-11-18T20:52:35;11.8;98
7455;HTU21D;3769;51.208;4.454;2023-11-18T20:57:35;11.9;98
7455;HTU21D;3769;51.208;4.454;2023-11-18T21:02:35;11.9;98
7455;HTU21D;3769;51.208;4.454;2023-11-18T21:07:35;11.9;98
7455;HTU21D;3769;51.208;4.454;2023-11-18T21:12:35;11.9;98
7455;HTU21D;3769;51.208;4.454;2023-11-18T21:17:35;12.1;98.1
7455;HTU21D;3769;51.208;4.454;2023-11-18T21:22:35;11.9;98
7455;HTU21D;3769;51.208;4.454;2023-11-18T21:27:35;11.9;98
7455;HTU21D;3769;51.208;4.454;2023-11-18T21:32:36;11.9;98
7455;HTU21D;3769;51.208;4.454;2023-11-18T21:37:35;11.9;98
7455;HTU21D;3769;51.208;4.454;2023-11-18T21:42:35;11.9;98
7455;HTU21D;3769;51.208;4.454;2023-11-18T21:47:35;12;98
7455;HTU21D;3769;51.208;4.454;2023-11-18T21:52:35;12;98.1
7455;HTU21D;3769;51.208;4.454;2023-11-18T21:57:35;12;98
7455;HTU21D;3769;51.208;4.454;2023-11-18T22:02:35;12.3;98.1
7455;HTU21D;3769;51.208;4.454;2023-11-18T22:07:36;12.2;98.1
7455;HTU21D;3769;51.208;4.454;2023-11-18T22:12:35;12.1;98.1
7455;HTU21D;3769;51.208;4.454;2023-11-18T22:17:35;12.1;98.1
7455;HTU21D;3769;51.208;4.454;2023-11-18T22:22:35;12.3;98.1
7455;HTU21D;3769;51.208;4.454;2023-11-18T22:27:35;12.4;98.1
7455;HTU21D;3769;51.208;4.454;2023-11-18T22:32:35;12.3;98.1
7455;HTU21D;3769;51.208;4.454;2023-11-18T22:37:35;12.2;98.1
7455;HTU21D;3769;51.208;4.454;2023-11-18T22:42:35;12.2;98.1
7455;HTU21D;3769;51.208;4.454;2023-11-18T22:47:35;12.2;98.1
7455;HTU21D;3769;51.208;4.454;2023-11-18T22:52:35;12.3;98.1
7455;HTU21D;3769;51.208;4.454;2023-11-18T22:57:35;12.4;98.1
7455;HTU21D;3769;51.208;4.454;2023-11-18T23:02:35;12.3;98.1
7455;HTU21D;3769;51.208;4.454;2023-11-18T23:07:35;12.6;98.1
7455;HTU21D;3769;51.208;4.454;2023-11-18T23:12:35;12.4;98.1
7455;HTU21D;3769;51.208;4.454;2023-11-18T23:17:35;12.4;98.1
7455;HTU21D;3769;51.208;4.454;2023-11-18T23:22:35;12.5;98.1
7455;HTU21D;3769;51.208;4.454;2023-11-18T23:27:35;12.4;98.1
7455;HTU21D;3769;51.208;4.454;2023-11-18T23:32:35;12.4;98.1
7455;HTU21D;3769;51.208;4.454;2023-11-18T23:37:35;12.4;98.1
7455;HTU21D;3769;51.208;4.454;2023-11-18T23:42:35;12.4;98.1
7455;HTU21D;3769;51.208;4.454;2023-11-18T23:47:35;12.5;98.1
7455;HTU21D;3769;51.208;4.454;2023-11-18T23:52:35;12.4;98.1
7455;HTU21D;3769;51.208;4.454;2023-11-18T23:57:35;12.4;98.1
